createdAt,value
2022-11-16T00:01:31.070Z,160688.13
2022-11-16T00:04:35.172Z,160675.09
2022-11-16T00:07:39.296Z,160646.28
2022-11-16T00:10:43.558Z,160648.94
2022-11-16T00:13:47.615Z,160617.56
2022-11-16T00:16:51.810Z,160617.56
2022-11-16T00:19:55.822Z,160621.47
2022-11-16T00:23:00.085Z,160621.47
2022-11-16T00:26:09.508Z,160582.28
2022-11-16T00:29:19.531Z,160571.84
2022-11-16T00:32:23.587Z,160532.69
2022-11-16T00:35:28.092Z,160505.28
2022-11-16T00:38:32.808Z,160507.88
2022-11-16T00:41:37.115Z,160502.63
2022-11-16T00:44:41.041Z,160484.38
2022-11-16T00:47:44.965Z,160481.72
2022-11-16T00:50:49.208Z,160486.97
2022-11-16T00:53:53.322Z,160490.84
2022-11-16T00:56:57.522Z,160502.63
2022-11-16T01:00:02.194Z,160467.38
2022-11-16T01:03:06.875Z,160468.66
2022-11-16T01:06:12.982Z,160468.66
2022-11-16T01:09:16.936Z,160485.66
2022-11-16T01:12:21.021Z,160503.94
2022-11-16T01:15:26.917Z,160485.66
2022-11-16T01:18:31.039Z,160484.38
2022-11-16T01:21:35.474Z,160500.03
2022-11-16T01:24:39.763Z,160497.38
2022-11-16T01:27:44.442Z,160492.19
2022-11-16T01:30:48.893Z,160469.97
2022-11-16T01:33:54.711Z,160458.25
2022-11-16T01:36:58.568Z,160434.72
2022-11-16T01:40:02.800Z,160413.84
2022-11-16T01:43:20.324Z,160392.97
2022-11-16T01:46:25.731Z,160389.03
2022-11-16T01:49:32.816Z,160399.44
2022-11-16T01:52:41.742Z,160420.38
2022-11-16T01:55:47.483Z,160421.69
2022-11-16T01:58:52.116Z,160442.56
2022-11-16T02:01:56.848Z,160424.28
2022-11-16T02:05:01.999Z,160421.69
2022-11-16T02:08:32.909Z,160421.69
2022-11-16T02:11:56.167Z,160419.03
2022-11-16T02:15:24.910Z,160434.72
2022-11-16T02:18:54.968Z,160433.41
2022-11-16T02:22:14.057Z,160400.75
2022-11-16T02:25:52.218Z,160403.34
2022-11-16T02:29:19.614Z,160392.97
2022-11-16T02:32:33.601Z,160362.94
2022-11-16T02:35:56.354Z,160345.91
2022-11-16T02:39:13.359Z,160353.75
2022-11-16T02:42:23.022Z,160334.16
2022-11-16T02:45:32.330Z,160339.41
2022-11-16T02:48:42.945Z,160326.38
2022-11-16T02:51:47.705Z,160322.44
2022-11-16T02:54:51.551Z,160310.69
2022-11-16T02:57:59.128Z,160317.19
2022-11-16T03:01:08.724Z,160330.22
2022-11-16T03:04:26.716Z,160309.38
2022-11-16T03:07:37.284Z,160291.06
2022-11-16T03:11:03.389Z,160296.31
2022-11-16T03:14:13.903Z,160305.44
2022-11-16T03:17:25.807Z,160253.22
2022-11-16T03:20:34.284Z,160272.81
2022-11-16T03:23:38.334Z,160258.44
2022-11-16T03:26:56.455Z,160284.56
2022-11-16T03:30:11.118Z,160298.88
2022-11-16T03:33:30.171Z,160274.06
2022-11-16T03:36:38.633Z,160253.22
2022-11-16T03:39:44.158Z,160270.16
2022-11-16T03:42:52.083Z,160249.28
2022-11-16T03:45:56.810Z,160249.28
2022-11-16T03:49:01.221Z,160204.91
2022-11-16T03:52:05.957Z,160231.00
2022-11-16T03:55:09.787Z,160211.47
2022-11-16T03:58:13.922Z,160169.69
2022-11-16T04:01:18.126Z,160186.69
2022-11-16T04:04:40.951Z,160223.22
2022-11-16T04:08:03.869Z,160249.28
2022-11-16T04:11:34.952Z,160224.50
2022-11-16T04:14:57.873Z,160221.91
2022-11-16T04:18:20.555Z,160221.91
2022-11-16T04:21:49.647Z,160214.06
2022-11-16T04:24:59.656Z,160198.38
2022-11-16T04:28:13.401Z,160191.88
2022-11-16T04:31:35.778Z,160216.66
2022-11-16T04:34:58.632Z,160165.78
2022-11-16T04:38:02.610Z,160178.78
2022-11-16T04:41:26.945Z,160177.53
2022-11-16T04:44:53.262Z,160181.44
2022-11-16T04:47:57.384Z,160204.91
2022-11-16T04:51:01.284Z,160193.16
2022-11-16T04:54:05.285Z,160214.06
2022-11-16T04:57:09.192Z,160210.16
2022-11-16T05:00:13.952Z,160199.66
2022-11-16T05:03:17.827Z,160182.72
2022-11-16T05:06:21.910Z,160178.78
2022-11-16T05:09:26.150Z,160163.13
2022-11-16T05:12:30.638Z,160172.28
2022-11-16T05:15:34.406Z,160160.53
2022-11-16T05:18:38.091Z,160185.38
2022-11-16T05:21:42.048Z,160176.19
2022-11-16T05:24:45.939Z,160172.28
2022-11-16T05:27:49.759Z,160197.06
2022-11-16T05:30:53.777Z,160187.97
2022-11-16T05:33:57.895Z,160218.00
2022-11-16T05:37:02.617Z,160231.00
2022-11-16T05:40:07.503Z,160199.66
2022-11-16T05:43:11.409Z,160176.19
2022-11-16T05:46:15.401Z,160157.88
2022-11-16T05:49:19.392Z,160173.59
2022-11-16T05:52:23.613Z,160157.88
2022-11-16T05:55:27.775Z,160173.59
2022-11-16T05:58:32.096Z,160170.97
2022-11-16T06:01:36.313Z,160176.19
2022-11-16T06:04:40.381Z,160189.28
2022-11-16T06:07:44.440Z,160200.97
2022-11-16T06:10:48.312Z,160168.38
2022-11-16T06:13:52.140Z,160181.44
2022-11-16T06:16:56.481Z,160199.66
2022-11-16T06:20:00.757Z,160189.28
2022-11-16T06:23:05.212Z,160198.38
2022-11-16T06:26:09.547Z,160234.94
2022-11-16T06:29:14.860Z,160231.00
2022-11-16T06:32:19.024Z,160215.38
2022-11-16T06:35:23.280Z,160238.84
2022-11-16T06:38:27.811Z,160241.44
2022-11-16T06:41:32.807Z,160254.53
2022-11-16T06:44:36.873Z,160232.28
2022-11-16T06:47:41.136Z,160240.19
2022-11-16T06:50:47.789Z,160241.44
2022-11-16T06:53:52.234Z,160242.78
2022-11-16T06:56:56.587Z,160223.22
2022-11-16T07:00:00.297Z,160244.09
2022-11-16T07:03:04.658Z,160236.25
2022-11-16T07:06:11.296Z,160258.44
2022-11-16T07:09:15.608Z,160257.13
2022-11-16T07:12:19.830Z,160285.88
2022-11-16T07:15:23.950Z,160285.88
2022-11-16T07:18:28.273Z,160313.28
2022-11-16T07:21:32.478Z,160306.72
2022-11-16T07:24:36.691Z,160306.72
2022-11-16T07:27:40.672Z,160310.69
2022-11-16T07:30:44.862Z,160311.97
2022-11-16T07:33:48.900Z,160325.03
2022-11-16T07:36:52.715Z,160311.97
2022-11-16T07:39:56.732Z,160332.81
2022-11-16T07:43:00.811Z,160349.84
2022-11-16T07:49:39.874Z,160355.09
2022-11-16T07:52:46.494Z,160355.09
2022-11-16T07:55:54.210Z,160373.31
2022-11-16T07:58:59.093Z,160382.47
2022-11-16T08:02:03.064Z,160395.56
2022-11-16T08:05:07.527Z,160442.56
2022-11-16T08:08:12.113Z,160430.81
2022-11-16T08:11:16.493Z,160471.28
2022-11-16T08:14:20.944Z,160481.72
2022-11-16T08:17:25.082Z,160518.31
2022-11-16T08:20:30.161Z,160468.66
2022-11-16T08:23:34.370Z,160479.13
2022-11-16T08:26:38.471Z,160520.91
2022-11-16T08:29:42.607Z,160528.75
2022-11-16T08:32:46.718Z,160527.44
2022-11-16T08:35:51.455Z,160488.31
2022-11-16T08:38:55.415Z,160510.47
2022-11-16T08:41:59.640Z,160497.38
2022-11-16T08:45:03.927Z,160532.69
2022-11-16T08:48:08.199Z,160526.16
2022-11-16T08:51:19.272Z,160557.47
2022-11-16T08:54:24.055Z,160570.59
2022-11-16T08:57:28.297Z,160557.47
2022-11-16T09:00:32.273Z,160600.63
2022-11-16T09:03:37.979Z,160524.84
2022-11-16T09:06:42.026Z,160564.00
2022-11-16T09:09:45.970Z,160588.81
2022-11-16T09:12:50.263Z,160609.72
2022-11-16T09:16:00.918Z,160613.63
2022-11-16T09:19:04.638Z,160622.81
2022-11-16T09:22:08.640Z,160608.44
2022-11-16T09:25:12.586Z,160607.16
2022-11-16T09:28:21.050Z,160608.44
2022-11-16T09:31:29.698Z,160620.22
2022-11-16T09:34:34.624Z,160667.19
2022-11-16T09:37:39.111Z,160618.88
2022-11-16T09:40:46.177Z,160638.44
2022-11-16T09:44:40.599Z,160656.78
2022-11-16T09:47:59.301Z,160656.78
2022-11-16T09:51:08.207Z,160651.53
2022-11-16T09:54:16.843Z,160652.88
2022-11-16T09:57:28.256Z,160677.69
2022-11-16T10:00:33.127Z,160695.94
2022-11-16T10:03:42.749Z,160726.00
2022-11-16T10:06:56.836Z,160735.19
2022-11-16T10:10:01.015Z,160737.78
2022-11-16T10:13:36.838Z,160689.47
2022-11-16T10:16:47.958Z,160697.25
2022-11-16T10:20:19.876Z,160714.28
2022-11-16T10:23:38.749Z,160735.19
2022-11-16T10:26:48.173Z,160760.00
2022-11-16T10:30:01.078Z,160745.69
2022-11-16T10:33:11.401Z,160735.19
2022-11-16T10:36:16.503Z,160753.47
2022-11-16T10:39:21.262Z,160754.75
2022-11-16T10:42:37.041Z,160786.16
2022-11-16T10:46:20.212Z,160757.41
2022-11-16T10:49:47.907Z,160780.91
2022-11-16T10:52:51.875Z,160814.91
2022-11-16T10:56:32.406Z,160787.44
2022-11-16T10:59:42.951Z,160770.50
2022-11-16T11:02:48.545Z,160791.34
2022-11-16T11:05:53.574Z,160778.31
2022-11-16T11:09:22.549Z,160774.38
2022-11-16T11:12:39.074Z,160760.00
2022-11-16T11:15:44.742Z,160778.31
2022-11-16T11:18:48.607Z,160784.84
2022-11-16T11:21:59.763Z,160783.50
2022-11-16T11:25:14.624Z,160784.84
2022-11-16T11:28:28.518Z,160773.06
2022-11-16T11:31:38.840Z,160804.41
2022-11-16T11:34:47.213Z,160795.34
2022-11-16T11:37:54.431Z,160782.22
2022-11-16T11:41:05.050Z,160792.69
2022-11-16T11:44:20.395Z,160778.31
2022-11-16T11:48:17.320Z,160771.78
2022-11-16T11:51:27.564Z,160816.19
2022-11-16T11:54:52.771Z,160807.06
2022-11-16T11:57:59.389Z,160817.50
2022-11-16T12:01:44.260Z,160831.91
2022-11-16T12:05:00.318Z,160808.34
2022-11-16T12:08:18.608Z,160813.59
2022-11-16T12:11:34.309Z,160792.69
2022-11-16T12:15:00.358Z,160766.53
2022-11-16T12:18:04.317Z,160779.56
2022-11-16T12:21:19.513Z,160792.69
2022-11-16T12:24:45.405Z,160783.50
2022-11-16T12:28:37.079Z,160745.69
2022-11-16T12:31:51.356Z,160737.78
2022-11-16T12:35:01.968Z,160769.19
2022-11-16T12:38:41.425Z,160776.97
2022-11-16T12:42:23.645Z,160769.19
2022-11-16T12:45:44.954Z,160769.19
2022-11-16T12:49:02.393Z,160775.66
2022-11-16T12:52:34.440Z,160753.47
2022-11-16T12:56:04.608Z,160800.47
2022-11-16T12:59:31.497Z,160766.53
2022-11-16T13:03:00.685Z,160782.22
2022-11-16T13:06:10.570Z,160760.00
2022-11-16T13:09:18.548Z,160770.50
2022-11-16T13:12:23.528Z,160782.22
2022-11-16T13:15:37.638Z,160835.81
2022-11-16T13:18:42.861Z,160808.34
2022-11-16T13:22:03.437Z,160814.91
2022-11-16T13:25:19.306Z,160811.00
2022-11-16T13:28:36.858Z,160792.69
2022-11-16T13:32:12.567Z,160782.22
2022-11-16T13:35:18.383Z,160769.19
2022-11-16T13:38:53.848Z,160769.19
2022-11-16T13:42:13.098Z,160753.47
2022-11-16T13:45:20.679Z,160753.47
2022-11-16T13:48:33.729Z,160756.09
2022-11-16T13:51:37.799Z,160750.84
2022-11-16T13:54:50.277Z,160743.03
2022-11-16T13:57:57.188Z,160776.97
2022-11-16T14:01:10.690Z,160761.31
2022-11-16T14:04:55.911Z,160719.47
2022-11-16T14:08:19.934Z,160723.41
2022-11-16T14:11:34.477Z,160731.25
2022-11-16T14:15:15.192Z,160707.75
2022-11-16T14:18:36.878Z,160690.78
2022-11-16T14:21:55.323Z,160692.00
2022-11-16T14:25:29.585Z,160716.88
2022-11-16T14:28:59.281Z,160727.34
2022-11-16T14:32:04.959Z,160714.28
2022-11-16T14:35:31.044Z,160697.25
2022-11-16T14:38:40.815Z,160701.19
2022-11-16T14:41:46.296Z,160714.28
2022-11-16T14:44:50.956Z,160707.75
2022-11-16T14:48:16.981Z,160699.91
2022-11-16T14:51:25.457Z,160685.53
2022-11-16T14:54:38.241Z,160681.63
2022-11-16T14:57:42.597Z,160655.47
2022-11-16T15:01:04.793Z,160646.28
2022-11-16T15:04:10.059Z,160662.03
2022-11-16T15:07:15.359Z,160662.03
2022-11-16T15:10:25.070Z,160628.06
2022-11-16T15:13:29.111Z,160651.53
2022-11-16T15:16:32.758Z,160645.03
2022-11-16T15:19:36.846Z,160664.59
2022-11-16T15:22:43.757Z,160654.19
2022-11-16T15:25:56.305Z,160645.03
2022-11-16T15:29:00.302Z,160648.94
2022-11-16T15:32:06.781Z,160618.88
2022-11-16T15:35:23.738Z,160628.06
2022-11-16T15:38:30.679Z,160637.19
2022-11-16T15:41:37.540Z,160648.94
2022-11-16T15:44:43.162Z,160629.38
2022-11-16T15:47:47.694Z,160646.28
2022-11-16T15:51:01.463Z,160611.03
2022-11-16T15:54:51.016Z,160579.69
2022-11-16T15:58:07.507Z,160570.59
2022-11-16T16:01:13.101Z,160578.44
2022-11-16T16:04:18.472Z,160561.41
2022-11-16T16:07:39.614Z,160587.53
2022-11-16T16:10:44.128Z,160582.28
2022-11-16T16:14:00.685Z,160588.81
2022-11-16T16:17:04.407Z,160591.47
2022-11-16T16:20:18.246Z,160600.63
2022-11-16T16:23:25.015Z,160575.81
2022-11-16T16:26:28.940Z,160577.09
2022-11-16T16:29:33.199Z,160601.91
2022-11-16T16:32:37.914Z,160609.72
2022-11-16T16:35:42.261Z,160596.66
2022-11-16T16:38:46.369Z,160577.09
2022-11-16T16:41:50.638Z,160588.81
2022-11-16T16:44:54.722Z,160580.97
2022-11-16T16:47:58.738Z,160571.84
2022-11-16T16:51:02.868Z,160570.59
2022-11-16T16:54:07.244Z,160567.94
2022-11-16T16:57:18.561Z,160575.81
2022-11-16T17:00:23.449Z,160577.09
2022-11-16T17:03:27.751Z,160582.28
2022-11-16T17:06:32.187Z,160575.81
2022-11-16T17:09:35.991Z,160574.50
2022-11-16T17:12:40.474Z,160560.09
2022-11-16T17:15:44.511Z,160530.09
2022-11-16T17:18:53.801Z,160524.84
2022-11-16T17:21:58.300Z,160560.09
2022-11-16T17:25:02.146Z,160543.13
2022-11-16T17:28:05.922Z,160541.84
2022-11-16T17:31:11.539Z,160541.84
2022-11-16T17:34:15.516Z,160545.78
2022-11-16T17:37:19.751Z,160544.44
2022-11-16T17:40:23.883Z,160536.59
2022-11-16T17:43:27.803Z,160575.81
2022-11-16T17:46:32.059Z,160552.25
2022-11-16T17:49:36.212Z,160534.00
2022-11-16T17:52:41.635Z,160511.78
2022-11-16T17:55:45.291Z,160515.72
2022-11-16T17:58:52.517Z,160523.50
2022-11-16T18:01:57.866Z,160532.69
2022-11-16T18:05:02.232Z,160562.72
2022-11-16T18:08:08.130Z,160540.53
2022-11-16T18:11:22.662Z,160534.00
2022-11-16T18:14:26.787Z,160519.63
2022-11-16T18:17:31.230Z,160509.19
2022-11-16T18:20:37.054Z,160526.16
2022-11-16T18:23:41.655Z,160536.59
2022-11-16T18:26:45.599Z,160514.38
2022-11-16T18:29:49.293Z,160523.50
2022-11-16T18:32:53.554Z,160532.69
2022-11-16T18:35:57.936Z,160501.28
2022-11-16T18:39:04.679Z,160528.75
2022-11-16T18:42:11.717Z,160513.13
2022-11-16T18:45:15.820Z,160540.53
2022-11-16T18:48:20.079Z,160524.84
2022-11-16T18:51:26.212Z,160505.28
2022-11-16T18:54:30.145Z,160506.53
2022-11-16T18:57:34.325Z,160528.75
2022-11-16T19:00:38.677Z,160485.66
2022-11-16T19:03:43.076Z,160477.81
2022-11-16T19:06:47.155Z,160496.09
2022-11-16T19:09:51.802Z,160458.25
2022-11-16T19:12:56.087Z,160446.50
2022-11-16T19:16:00.269Z,160481.72
2022-11-16T19:19:04.951Z,160446.50
2022-11-16T19:22:09.113Z,160434.72
2022-11-16T19:25:13.497Z,160424.28
2022-11-16T19:28:17.549Z,160429.47
2022-11-16T19:31:24.733Z,160413.84
2022-11-16T19:34:33.154Z,160430.81
2022-11-16T19:37:38.885Z,160446.50
2022-11-16T19:40:43.440Z,160419.03
2022-11-16T19:43:48.412Z,160385.13
2022-11-16T19:46:54.384Z,160379.88
2022-11-16T19:49:58.127Z,160382.47
2022-11-16T19:53:02.417Z,160361.59
2022-11-16T19:56:07.364Z,160353.75
2022-11-16T19:59:11.698Z,160362.94
2022-11-16T20:02:16.023Z,160389.03
2022-11-16T20:05:20.226Z,160366.78
2022-11-16T20:08:24.425Z,160372.03
2022-11-16T20:11:31.178Z,160360.31
2022-11-16T20:14:35.117Z,160348.50
2022-11-16T20:17:39.131Z,160340.66
2022-11-16T20:20:43.449Z,160340.66
2022-11-16T20:23:47.578Z,160296.31
2022-11-16T20:26:51.699Z,160334.16
2022-11-16T20:29:55.621Z,160306.72
2022-11-16T20:32:59.268Z,160308.03
2022-11-16T20:36:05.490Z,160310.69
2022-11-16T20:39:13.981Z,160306.72
2022-11-16T20:42:19.441Z,160306.72
2022-11-16T20:45:23.762Z,160332.81
2022-11-16T20:48:27.567Z,160315.88
2022-11-16T20:51:31.250Z,160301.53
2022-11-16T20:54:35.175Z,160292.41
2022-11-16T20:57:39.427Z,160310.69
2022-11-16T21:00:43.520Z,160292.41
2022-11-16T21:03:47.593Z,160287.16
2022-11-16T21:06:51.811Z,160263.69
2022-11-16T21:10:22.158Z,160270.16
2022-11-16T21:13:44.788Z,160289.81
2022-11-16T21:16:49.217Z,160270.16
2022-11-16T21:20:20.232Z,160264.97
2022-11-16T21:23:17.208Z,160280.66
2022-11-16T21:26:28.327Z,160280.66
2022-11-16T21:29:32.339Z,160284.56
2022-11-16T21:32:36.323Z,160281.91
2022-11-16T21:35:40.323Z,160296.31
2022-11-16T21:38:44.412Z,160314.59
2022-11-16T21:41:48.458Z,160292.41
2022-11-16T21:44:52.264Z,160305.44
2022-11-16T21:47:56.378Z,160293.72
2022-11-16T21:51:05.391Z,160319.78
2022-11-16T21:54:09.593Z,160271.47
2022-11-16T21:57:17.443Z,160285.88
2022-11-16T22:00:21.556Z,160261.09
2022-11-16T22:03:30.498Z,160296.31
2022-11-16T22:06:53.018Z,160263.69
2022-11-16T22:09:57.317Z,160263.69
2022-11-16T22:13:01.561Z,160293.72
2022-11-16T22:16:17.198Z,160267.56
2022-11-16T22:19:21.193Z,160275.41
2022-11-16T22:22:25.125Z,160267.56
2022-11-16T22:25:29.040Z,160253.22
2022-11-16T22:28:34.174Z,160281.91
2022-11-16T22:31:38.103Z,160254.53
2022-11-16T22:34:42.023Z,160255.84
2022-11-16T22:37:45.893Z,160206.22
2022-11-16T22:40:54.766Z,160253.22
2022-11-16T22:43:58.844Z,160272.81
2022-11-16T22:47:03.319Z,160266.25
2022-11-16T22:50:07.789Z,160253.22
2022-11-16T22:53:12.184Z,160266.25
2022-11-16T22:56:16.327Z,160258.44
2022-11-16T22:59:20.326Z,160245.38
2022-11-16T23:02:24.162Z,160245.38
2022-11-16T23:05:28.595Z,160255.84
2022-11-16T23:08:33.784Z,160255.84
2022-11-16T23:11:56.602Z,160251.94
2022-11-16T23:15:19.449Z,160236.25
2022-11-16T23:18:23.569Z,160197.06
2022-11-16T23:21:46.494Z,160202.31
2022-11-16T23:25:09.229Z,160223.22
2022-11-16T23:28:14.878Z,160207.50
2022-11-16T23:31:19.026Z,160200.97
2022-11-16T23:34:23.062Z,160194.47
2022-11-16T23:37:26.967Z,160174.88
2022-11-16T23:40:33.832Z,160159.19
2022-11-16T23:43:56.638Z,160147.50
2022-11-16T23:47:00.593Z,160124.00
2022-11-16T23:50:05.291Z,160143.56
2022-11-16T23:53:10.440Z,160127.91
2022-11-16T23:56:14.444Z,160116.19
2022-11-16T23:59:18.455Z,160114.88
